Time;durP1;ratioP1;P1;durP2;ratioP2;P2;SDS_P1;SDS_P2;PMS_P1;PMS_P2;Temp;Humidity;BMP_temperature;BMP_pressure;BME280_temperature;BME280_humidity;BME280_pressure;Samples;Min_cycle;Max_cycle;Signal;HPM_P1;HPM_P2
2023/07/30 00:02:01;;;;;;;14.55;13.93;;;18.40;1.00;;;;;;5038770;28;20025;-85
2023/07/30 00:04:30;;;;;;;15.80;15.20;;;18.40;1.00;;;;;;5041419;28;20048;-84
2023/07/30 00:06:56;;;;;;;13.38;12.88;;;18.40;1.00;;;;;;5029973;28;20033;-83
2023/07/30 00:09:22;;;;;;;14.55;13.95;;;18.40;1.00;;;;;;5036369;28;20045;-83
2023/07/30 00:11:48;;;;;;;16.08;15.38;;;18.40;1.00;;;;;;5050478;28;20041;-85
2023/07/30 00:14:15;;;;;;;17.17;16.48;;;18.40;1.00;;;;;;5037170;28;20355;-83
2023/07/30 00:16:41;;;;;;;16.95;16.17;;;18.40;1.00;;;;;;5037714;28;20033;-83
2023/07/30 00:19:07;;;;;;;16.50;15.88;;;18.40;1.00;;;;;;5040755;28;20049;-88
2023/07/30 00:21:33;;;;;;;16.73;16.02;;;18.30;1.00;;;;;;5043296;28;20458;-89
2023/07/30 00:23:59;;;;;;;16.92;16.23;;;18.30;1.00;;;;;;5035232;28;20382;-90
2023/07/30 00:26:26;;;;;;;15.52;14.82;;;18.30;1.00;;;;;;5045790;28;20044;-86
2023/07/30 00:28:52;;;;;;;15.90;15.25;;;18.30;1.00;;;;;;5033614;28;20061;-88
2023/07/30 00:31:18;;;;;;;16.00;15.40;;;18.30;1.00;;;;;;5030997;28;20398;-90
2023/07/30 00:33:44;;;;;;;16.60;15.80;;;18.30;1.00;;;;;;5033522;28;20036;-91
2023/07/30 00:36:10;;;;;;;18.27;17.48;;;18.30;1.00;;;;;;5035591;28;20030;-89
2023/07/30 00:38:38;;;;;;;17.88;16.92;;;18.20;1.00;;;;;;5033123;28;20064;-90
2023/07/30 00:41:04;;;;;;;17.52;16.73;;;18.30;1.00;;;;;;5049156;28;20402;-90
2023/07/30 00:43:30;;;;;;;17.38;16.67;;;18.30;1.00;;;;;;5035327;28;20026;-91
2023/07/30 00:45:57;;;;;;;16.30;15.60;;;18.30;1.00;;;;;;5050683;28;20049;-89
2023/07/30 00:48:23;;;;;;;18.65;17.75;;;18.30;1.00;;;;;;5048919;28;20049;-88
2023/07/30 00:50:49;;;;;;;17.17;16.50;;;18.30;1.00;;;;;;5036645;28;20044;-88
2023/07/30 00:53:16;;;;;;;16.38;15.77;;;18.30;1.00;;;;;;5033280;28;20101;-89
2023/07/30 00:55:42;;;;;;;15.32;14.73;;;18.30;1.00;;;;;;5026766;28;20034;-88
2023/07/30 00:58:11;;;;;;;15.20;14.60;;;18.30;1.00;;;;;;5035756;28;20136;-90
2023/07/30 01:00:37;;;;;;;15.60;14.90;;;18.30;1.00;;;;;;5035886;28;20061;-91
2023/07/30 01:03:04;;;;;;;14.65;14.05;;;18.40;1.00;;;;;;5033735;28;20029;-89
2023/07/30 01:05:30;;;;;;;14.68;14.15;;;18.40;1.00;;;;;;5036772;28;20028;-90
2023/07/30 01:07:57;;;;;;;15.10;14.52;;;18.40;1.00;;;;;;5034132;28;20033;-90
2023/07/30 01:10:23;;;;;;;15.68;15.07;;;18.40;1.00;;;;;;5057075;28;20033;-90
2023/07/30 01:12:51;;;;;;;15.65;15.05;;;18.40;1.00;;;;;;5041536;28;20033;-88
2023/07/30 01:15:17;;;;;;;16.00;15.40;;;18.40;1.00;;;;;;5049498;28;20037;-90
2023/07/30 01:17:44;;;;;;;15.73;15.13;;;18.40;1.00;;;;;;5042443;28;20040;-91
2023/07/30 01:20:11;;;;;;;14.80;14.20;;;18.30;1.00;;;;;;5034259;28;20064;-91
2023/07/30 01:22:37;;;;;;;16.52;15.93;;;18.30;1.00;;;;;;5035989;28;20029;-90
2023/07/30 01:25:04;;;;;;;15.73;15.13;;;18.30;1.00;;;;;;5035608;28;20033;-90
2023/07/30 01:27:33;;;;;;;16.58;15.88;;;18.30;4.20;;;;;;5049456;28;20041;-91
2023/07/30 01:30:15;;;;;;;16.55;15.82;;;18.30;13.20;;;;;;5045578;28;20131;-91
2023/07/30 01:32:42;;;;;;;15.15;14.55;;;18.30;18.80;;;;;;5049271;28;20056;-91
2023/07/30 01:35:09;;;;;;;15.35;14.75;;;18.30;27.40;;;;;;5036741;28;20037;-91
2023/07/30 01:37:40;;;;;;;17.30;16.60;;;18.30;35.20;;;;;;5030812;28;20358;-90
2023/07/30 01:40:10;;;;;;;16.38;15.68;;;18.30;43.90;;;;;;5032694;28;20052;-91
2023/07/30 01:42:36;;;;;;;17.02;16.02;;;18.30;41.60;;;;;;5040614;28;20060;-90
2023/07/30 01:45:03;;;;;;;16.50;15.80;;;18.30;45.00;;;;;;5049553;28;20038;-86
2023/07/30 01:47:34;;;;;;;16.85;16.15;;;18.30;52.60;;;;;;5050752;28;20422;-85
2023/07/30 01:50:05;;;;;;;16.50;15.70;;;18.30;61.80;;;;;;5040746;28;20030;-87
2023/07/30 01:52:33;;;;;;;17.92;17.13;;;18.30;68.20;;;;;;5038697;28;20131;-87
2023/07/30 01:55:00;;;;;;;17.70;16.95;;;18.20;76.90;;;;;;5035025;28;20045;-86
2023/07/30 01:57:27;;;;;;;16.75;16.05;;;18.20;84.90;;;;;;5038165;28;20041;-86
2023/07/30 01:59:56;;;;;;;16.25;15.65;;;18.20;94.70;;;;;;5034917;28;20402;-87
2023/07/30 02:02:27;;;;;;;16.48;15.77;;;18.20;99.90;;;;;;5026326;28;20044;-86
2023/07/30 02:04:56;;;;;;;16.58;15.85;;;18.30;99.90;;;;;;5033895;28;20029;-85
2023/07/30 02:07:22;;;;;;;17.42;16.63;;;18.30;99.90;;;;;;5035428;28;20034;-85
2023/07/30 02:09:49;;;;;;;17.10;16.40;;;18.30;99.90;;;;;;5031936;28;20037;-87
2023/07/30 02:12:23;;;;;;;16.17;15.48;;;18.30;99.90;;;;;;5042693;28;20060;-87
2023/07/30 02:14:50;;;;;;;17.33;16.52;;;18.30;99.90;;;;;;5044652;28;20033;-86
2023/07/30 02:17:16;;;;;;;16.63;15.93;;;18.10;99.90;;;;;;5038582;28;20042;-85
2023/07/30 02:19:42;;;;;;;16.90;16.20;;;18.10;99.90;;;;;;5041165;28;20045;-84
2023/07/30 02:22:08;;;;;;;18.77;17.98;;;18.00;99.90;;;;;;5029065;28;20139;-83
2023/07/30 02:24:34;;;;;;;18.13;17.42;;;18.00;99.90;;;;;;5040676;28;20025;-84
2023/07/30 02:27:01;;;;;;;16.05;15.35;;;18.00;99.90;;;;;;5038738;28;20052;-84
2023/07/30 02:29:27;;;;;;;17.38;16.67;;;17.90;99.90;;;;;;5038471;28;20029;-85
2023/07/30 02:31:54;;;;;;;16.58;15.88;;;18.00;99.90;;;;;;5033942;28;20339;-85
2023/07/30 02:34:20;;;;;;;18.70;17.90;;;18.00;99.90;;;;;;5052952;28;20505;-85
2023/07/30 02:36:46;;;;;;;16.40;15.70;;;18.10;99.90;;;;;;5033317;28;20379;-84
2023/07/30 02:39:12;;;;;;;16.25;15.55;;;18.00;99.90;;;;;;5040564;28;20101;-84
2023/07/30 02:41:38;;;;;;;17.50;16.70;;;17.90;99.90;;;;;;5048695;28;20040;-84
2023/07/30 02:44:04;;;;;;;17.58;16.88;;;17.90;99.90;;;;;;5037665;28;20033;-84
2023/07/30 02:46:31;;;;;;;16.83;16.13;;;17.90;1.00;;;;;;5058420;28;20033;-84
2023/07/30 02:48:57;;;;;;;19.02;18.23;;;17.90;1.00;;;;;;5033007;28;20061;-84
2023/07/30 02:51:23;;;;;;;18.20;17.30;;;17.80;1.00;;;;;;5052177;28;20037;-84
2023/07/30 02:53:53;;;;;;;17.45;16.75;;;17.80;1.00;;;;;;5037167;28;20048;-83
2023/07/30 02:56:19;;;;;;;21.43;20.53;;;17.80;1.00;;;;;;5037633;28;20385;-85
2023/07/30 02:58:45;;;;;;;17.83;16.92;;;17.90;1.00;;;;;;5051798;28;20470;-85
2023/07/30 03:01:11;;;;;;;17.60;16.80;;;17.90;1.00;;;;;;5055183;28;20075;-85
2023/07/30 03:03:37;;;;;;;18.38;17.58;;;17.80;1.00;;;;;;5050019;28;20044;-84
2023/07/30 03:06:04;;;;;;;18.67;17.88;;;17.80;1.00;;;;;;5036159;28;20040;-84
2023/07/30 03:08:30;;;;;;;17.70;17.00;;;17.90;1.00;;;;;;5034022;28;20046;-85
2023/07/30 03:10:59;;;;;;;18.40;17.70;;;17.90;1.00;;;;;;5038142;28;20059;-86
2023/07/30 03:13:26;;;;;;;24.98;23.98;;;17.90;1.00;;;;;;5051244;28;20049;-87
2023/07/30 03:15:52;;;;;;;19.63;18.83;;;17.90;1.00;;;;;;5046104;28;20030;-85
2023/07/30 03:18:18;;;;;;;17.92;17.17;;;17.90;1.00;;;;;;5045457;28;20052;-85
2023/07/30 03:20:52;;;;;;;19.65;18.85;;;17.90;1.00;;;;;;5035148;28;20029;-86
2023/07/30 03:23:18;;;;;;;19.83;19.02;;;17.80;1.00;;;;;;5027154;28;20053;-86
2023/07/30 03:25:44;;;;;;;19.67;18.88;;;17.80;1.00;;;;;;5044991;28;20099;-91
2023/07/30 03:28:10;;;;;;;18.60;17.80;;;17.90;1.00;;;;;;5027559;28;20045;-88
2023/07/30 03:30:36;;;;;;;21.67;20.88;;;17.90;1.00;;;;;;5040585;28;20406;-86
2023/07/30 03:33:03;;;;;;;18.88;18.05;;;17.80;1.00;;;;;;5034153;28;20081;-85
2023/07/30 03:35:29;;;;;;;21.48;20.58;;;17.80;1.00;;;;;;5052670;28;20025;-85
2023/07/30 03:37:55;;;;;;;21.48;20.58;;;17.80;1.00;;;;;;5039863;28;20044;-85
2023/07/30 03:40:23;;;;;;;19.02;18.17;;;17.80;1.00;;;;;;5035377;28;20045;-86
2023/07/30 03:42:49;;;;;;;21.60;20.70;;;17.80;1.00;;;;;;5034134;28;20057;-84
2023/07/30 03:45:15;;;;;;;19.30;18.50;;;17.80;1.00;;;;;;5048554;28;20029;-85
2023/07/30 03:47:41;;;;;;;19.40;18.60;;;17.90;1.00;;;;;;5025352;28;20038;-85
2023/07/30 03:50:08;;;;;;;20.13;19.33;;;17.90;1.00;;;;;;5033299;28;20068;-84
2023/07/30 03:52:37;;;;;;;21.80;20.90;;;17.90;1.00;;;;;;5038648;28;20042;-82
2023/07/30 03:55:04;;;;;;;24.65;23.65;;;17.90;1.00;;;;;;5051698;28;20041;-84
2023/07/30 03:57:30;;;;;;;20.77;19.88;;;17.90;1.00;;;;;;5036752;28;20048;-85
2023/07/30 03:59:56;;;;;;;21.98;21.08;;;17.90;1.00;;;;;;5033679;28;20053;-85
2023/07/30 04:02:22;;;;;;;21.13;20.25;;;17.90;1.00;;;;;;5046968;28;20128;-84
2023/07/30 04:04:49;;;;;;;20.95;20.05;;;17.90;1.00;;;;;;5036314;28;20028;-84
2023/07/30 04:07:16;;;;;;;19.25;18.50;;;17.90;1.00;;;;;;5047632;28;20042;-84
2023/07/30 04:09:42;;;;;;;21.50;20.60;;;17.90;1.00;;;;;;5039053;28;20040;-84
2023/07/30 04:12:08;;;;;;;21.77;20.88;;;18.00;1.00;;;;;;5045905;28;20042;-84
2023/07/30 04:14:37;;;;;;;23.60;22.58;;;18.00;1.00;;;;;;5030486;28;20071;-84
2023/07/30 04:17:03;;;;;;;22.88;21.98;;;18.10;1.00;;;;;;5047891;28;20038;-84
2023/07/30 04:19:29;;;;;;;22.13;21.23;;;18.10;1.00;;;;;;5039326;28;20044;-84
2023/07/30 04:21:56;;;;;;;22.13;21.23;;;18.10;2.20;;;;;;5049604;28;20038;-85
2023/07/30 04:24:22;;;;;;;20.42;19.63;;;18.10;5.00;;;;;;5036727;28;20049;-85
2023/07/30 04:26:48;;;;;;;23.15;22.08;;;18.10;7.70;;;;;;5046298;28;20486;-85
2023/07/30 04:29:16;;;;;;;22.63;21.73;;;18.10;10.10;;;;;;5032320;28;20471;-85
2023/07/30 04:31:42;;;;;;;22.00;21.13;;;18.10;12.40;;;;;;5030201;28;20455;-85
2023/07/30 04:34:08;;;;;;;21.48;20.58;;;18.10;14.20;;;;;;5036919;28;20037;-85
2023/07/30 04:36:36;;;;;;;24.90;23.75;;;18.00;15.60;;;;;;5017377;28;20048;-88
2023/07/30 04:39:03;;;;;;;24.33;23.42;;;18.10;17.00;;;;;;5048305;28;20390;-85
2023/07/30 04:41:32;;;;;;;25.00;24.00;;;18.10;18.30;;;;;;5023557;28;20056;-84
2023/07/30 04:43:59;;;;;;;25.52;24.52;;;18.10;19.80;;;;;;5039383;28;20462;-84
2023/07/30 04:46:28;;;;;;;26.70;25.58;;;18.10;21.00;;;;;;5042216;28;20044;-88
2023/07/30 04:48:54;;;;;;;23.58;22.63;;;18.10;21.90;;;;;;5029120;28;20056;-80
2023/07/30 04:51:20;;;;;;;21.77;20.88;;;18.10;22.80;;;;;;5015760;28;20402;-80
2023/07/30 04:53:46;;;;;;;25.08;23.98;;;18.10;23.40;;;;;;5042893;28;20053;-79
2023/07/30 04:56:13;;;;;;;26.25;25.15;;;18.10;23.10;;;;;;5034734;28;20038;-82
2023/07/30 04:58:39;;;;;;;21.70;20.80;;;18.10;22.40;;;;;;5032204;28;20048;-80
2023/07/30 05:01:05;;;;;;;23.10;22.20;;;18.00;21.80;;;;;;5032607;28;20540;-81
2023/07/30 05:03:31;;;;;;;22.20;21.20;;;18.00;21.10;;;;;;5030292;28;20039;-82
2023/07/30 05:05:57;;;;;;;24.42;23.30;;;18.00;20.10;;;;;;5033524;28;20029;-78
2023/07/30 05:08:24;;;;;;;25.00;23.90;;;18.00;18.90;;;;;;5021535;28;20033;-80
2023/07/30 05:10:50;;;;;;;24.95;23.85;;;18.00;18.10;;;;;;5030778;28;20485;-80
2023/07/30 05:13:16;;;;;;;25.25;24.13;;;18.10;16.60;;;;;;5033055;28;20485;-80
2023/07/30 05:15:43;;;;;;;25.60;24.20;;;18.00;15.50;;;;;;5034537;28;20063;-82
2023/07/30 05:18:09;;;;;;;24.55;23.35;;;18.10;14.90;;;;;;5033007;28;20029;-80
2023/07/30 05:20:35;;;;;;;25.50;24.30;;;18.10;14.00;;;;;;5033113;28;20034;-77
2023/07/30 05:23:02;;;;;;;26.10;24.90;;;18.10;12.50;;;;;;5028000;28;20112;-78
2023/07/30 05:25:28;;;;;;;26.45;25.05;;;18.20;11.00;;;;;;5034292;28;20444;-79
2023/07/30 05:27:54;;;;;;;23.33;22.27;;;18.20;11.60;;;;;;5035150;28;20390;-79
2023/07/30 05:30:21;;;;;;;22.00;21.10;;;18.80;21.60;;;;;;5037976;28;20371;-79
2023/07/30 05:32:47;;;;;;;23.33;22.38;;;19.40;30.40;;;;;;5036373;28;20033;-79
2023/07/30 05:35:13;;;;;;;24.75;23.77;;;19.70;38.60;;;;;;5063453;28;20053;-79
2023/07/30 05:37:39;;;;;;;25.83;24.83;;;20.10;41.50;;;;;;5035606;28;20037;-82
2023/07/30 05:40:06;;;;;;;21.33;20.42;;;20.40;11.20;;;;;;5031954;28;20450;-80
2023/07/30 05:42:33;;;;;;;22.20;21.30;;;20.60;1.00;;;;;;5038307;28;20363;-80
2023/07/30 05:44:59;;;;;;;20.45;19.65;;;20.70;99.90;;;;;;5039711;28;20032;-79
2023/07/30 05:47:25;;;;;;;19.60;18.70;;;21.10;99.90;;;;;;5038123;28;20033;-79
2023/07/30 05:49:51;;;;;;;19.70;18.90;;;21.30;99.90;;;;;;5036888;28;20048;-80
2023/07/30 05:52:18;;;;;;;18.75;17.95;;;21.50;1.00;;;;;;5042403;28;20044;-79
2023/07/30 05:54:44;;;;;;;18.27;17.58;;;21.60;1.00;;;;;;5042276;28;20479;-80
2023/07/30 05:57:10;;;;;;;18.20;17.40;;;21.80;1.00;;;;;;5039699;28;20032;-78
2023/07/30 05:59:36;;;;;;;19.75;18.98;;;21.90;1.00;;;;;;5032039;28;20057;-81
2023/07/30 06:02:03;;;;;;;25.98;25.08;;;22.20;99.90;;;;;;5044940;28;20032;-80
2023/07/30 06:04:30;;;;;;;22.83;21.67;;;22.10;99.90;;;;;;5038040;28;20370;-80
2023/07/30 06:06:58;;;;;;;20.00;19.30;;;21.90;99.90;;;;;;5039674;28;20025;-79
2023/07/30 06:09:24;;;;;;;18.25;17.55;;;21.40;99.90;;;;;;5037075;28;20028;-83
2023/07/30 06:11:50;;;;;;;19.42;18.73;;;21.20;99.90;;;;;;5034038;28;20048;-80
2023/07/30 06:14:16;;;;;;;21.00;20.23;;;20.80;99.90;;;;;;5040118;28;20037;-79
2023/07/30 06:16:43;;;;;;;18.45;17.75;;;20.60;1.00;;;;;;5039160;28;20041;-80
2023/07/30 06:19:09;;;;;;;20.20;19.30;;;20.60;1.00;;;;;;5037132;28;20025;-80
2023/07/30 06:21:35;;;;;;;19.75;18.95;;;20.60;99.90;;;;;;5030375;28;20033;-80
2023/07/30 06:24:01;;;;;;;21.40;20.60;;;20.60;1.00;;;;;;5027743;28;20502;-80
2023/07/30 06:26:28;;;;;;;21.10;20.38;;;20.50;1.00;;;;;;5034908;28;20048;-81
2023/07/30 06:28:54;;;;;;;20.80;20.10;;;20.40;1.00;;;;;;5039804;28;20025;-81
2023/07/30 06:31:20;;;;;;;18.88;18.17;;;20.20;1.00;;;;;;5038597;28;20459;-81
2023/07/30 06:33:46;;;;;;;19.17;18.48;;;20.10;1.00;;;;;;5039725;28;20090;-82
2023/07/30 06:36:12;;;;;;;21.75;20.95;;;20.00;1.00;;;;;;5041794;28;20040;-81
2023/07/30 06:38:38;;;;;;;23.55;22.67;;;20.00;1.00;;;;;;5036051;28;20029;-81
2023/07/30 06:41:05;;;;;;;26.83;25.75;;;20.00;1.00;;;;;;5051902;28;20038;-82
2023/07/30 06:43:31;;;;;;;15.68;15.07;;;19.90;1.00;;;;;;5032284;28;20048;-81
2023/07/30 06:45:57;;;;;;;18.30;17.60;;;19.90;1.00;;;;;;5033472;28;20105;-81
2023/07/30 06:48:23;;;;;;;18.83;17.88;;;19.80;1.00;;;;;;5038120;28;20131;-82
2023/07/30 06:50:49;;;;;;;16.17;15.48;;;19.90;1.00;;;;;;5034786;28;20048;-81
2023/07/30 06:53:15;;;;;;;18.40;17.67;;;20.10;1.00;;;;;;5041297;28;20032;-82
2023/07/30 06:55:42;;;;;;;16.25;15.55;;;20.60;1.00;;;;;;5039691;28;20048;-86
2023/07/30 06:58:08;;;;;;;18.70;18.00;;;20.90;1.00;;;;;;5038116;28;20029;-81
2023/07/30 07:00:34;;;;;;;14.68;14.07;;;21.00;99.90;;;;;;5036425;28;20402;-82
2023/07/30 07:03:00;;;;;;;19.00;18.30;;;20.90;99.90;;;;;;5037668;28;20026;-81
2023/07/30 07:05:26;;;;;;;18.63;17.80;;;20.80;99.90;;;;;;5033356;28;20041;-82
2023/07/30 07:07:52;;;;;;;18.27;17.38;;;20.90;99.90;;;;;;5036935;28;20029;-82
2023/07/30 07:10:18;;;;;;;19.60;18.90;;;21.00;99.90;;;;;;5032352;28;20052;-83
2023/07/30 07:12:45;;;;;;;20.98;20.17;;;20.80;99.90;;;;;;5037195;28;20116;-81
2023/07/30 07:15:11;;;;;;;20.65;19.85;;;20.80;99.90;;;;;;5037514;28;20033;-81
2023/07/30 07:17:40;;;;;;;19.55;18.67;;;20.90;99.90;;;;;;5032420;28;20052;-82
2023/07/30 07:20:07;;;;;;;18.58;17.88;;;21.10;99.90;;;;;;5033570;28;20033;-83
2023/07/30 07:22:33;;;;;;;17.17;16.58;;;21.00;99.90;;;;;;5033991;28;20025;-83
2023/07/30 07:25:00;;;;;;;18.40;17.70;;;21.00;99.90;;;;;;5025167;28;20459;-82
2023/07/30 07:27:27;;;;;;;18.60;17.90;;;20.90;99.90;;;;;;5030230;28;20029;-82
2023/07/30 07:29:53;;;;;;;19.48;18.75;;;20.70;99.90;;;;;;5031083;28;20041;-82
2023/07/30 07:32:19;;;;;;;20.67;19.90;;;20.50;99.90;;;;;;5032082;28;20064;-82
2023/07/30 07:34:47;;;;;;;18.80;18.08;;;20.30;99.90;;;;;;5033677;28;20034;-83
2023/07/30 07:37:15;;;;;;;20.45;19.58;;;20.20;1.00;;;;;;5034804;28;20034;-81
2023/07/30 07:39:42;;;;;;;19.42;18.70;;;20.10;1.00;;;;;;5059700;28;20033;-84
2023/07/30 07:42:09;;;;;;;15.82;15.23;;;20.00;1.00;;;;;;5032864;28;20044;-80
2023/07/30 07:44:35;;;;;;;16.40;15.80;;;20.10;1.00;;;;;;5034780;28;20021;-80
2023/07/30 07:47:01;;;;;;;18.00;17.20;;;20.20;99.90;;;;;;5055268;28;20042;-80
2023/07/30 07:49:28;;;;;;;19.80;19.10;;;20.40;1.00;;;;;;5032370;28;20461;-80
2023/07/30 07:51:54;;;;;;;19.10;18.40;;;20.40;99.90;;;;;;5025120;28;20033;-81
2023/07/30 07:54:20;;;;;;;20.48;19.67;;;20.50;99.90;;;;;;5034359;28;20042;-80
2023/07/30 07:56:46;;;;;;;18.00;17.20;;;20.90;99.90;;;;;;5024135;28;20030;-80
2023/07/30 07:59:12;;;;;;;18.73;17.92;;;21.10;99.90;;;;;;5033493;28;20056;-84
2023/07/30 08:01:38;;;;;;;21.60;20.80;;;21.50;99.90;;;;;;5026354;28;20034;-82
2023/07/30 08:04:04;;;;;;;19.88;19.17;;;22.00;99.90;;;;;;5031362;28;20033;-81
2023/07/30 08:06:34;;;;;;;19.92;19.13;;;22.40;99.90;;;;;;5031890;28;20040;-82
2023/07/30 08:09:00;;;;;;;30.08;28.98;;;22.50;99.90;;;;;;5033565;28;20442;-82
2023/07/30 08:11:26;;;;;;;29.58;28.48;;;22.50;99.90;;;;;;5031997;28;20044;-84
2023/07/30 08:13:52;;;;;;;55.72;53.80;;;22.70;99.10;;;;;;5033089;28;20029;-82
2023/07/30 08:16:18;;;;;;;27.23;26.13;;;22.70;99.90;;;;;;5027140;28;20040;-82
2023/07/30 08:18:45;;;;;;;25.55;24.52;;;22.80;43.20;;;;;;5047464;28;20037;-85
2023/07/30 08:21:11;;;;;;;19.52;18.83;;;22.70;46.40;;;;;;5036628;28;20029;-82
2023/07/30 08:23:37;;;;;;;26.02;25.05;;;22.50;1.00;;;;;;5052059;28;20033;-82
2023/07/30 08:26:03;;;;;;;19.85;19.05;;;22.40;1.00;;;;;;5039207;28;20029;-83
2023/07/30 08:28:29;;;;;;;31.60;30.50;;;22.00;1.00;;;;;;5027461;28;20045;-81
2023/07/30 08:31:02;;;;;;;28.45;27.30;;;21.90;1.00;;;;;;5032154;28;20060;-84
2023/07/30 08:33:29;;;;;;;28.83;27.83;;;22.10;1.00;;;;;;5037835;28;20061;-84
2023/07/30 08:35:56;;;;;;;75.72;73.13;;;22.60;99.90;;;;;;5037603;28;20046;-82
2023/07/30 08:38:23;;;;;;;87.43;84.38;;;22.40;99.90;;;;;;5035499;28;20056;-82
2023/07/30 08:40:50;;;;;;;57.72;55.72;;;22.00;99.90;;;;;;5031433;28;20045;-85
2023/07/30 08:43:17;;;;;;;33.03;31.83;;;22.00;99.90;;;;;;5036751;28;20037;-83
2023/07/30 08:45:43;;;;;;;24.20;23.33;;;22.50;99.90;;;;;;5036818;28;20458;-83
2023/07/30 08:48:10;;;;;;;21.60;20.80;;;22.60;99.90;;;;;;5036389;28;20040;-79
2023/07/30 08:50:37;;;;;;;22.98;22.08;;;23.00;99.90;;;;;;5036899;28;20033;-77
2023/07/30 08:53:03;;;;;;;29.02;27.83;;;23.00;91.20;;;;;;5036893;28;20037;-79
2023/07/30 08:55:33;;;;;;;29.70;28.70;;;22.70;91.00;;;;;;5036072;28;20089;-79
2023/07/30 08:58:04;;;;;;;34.90;33.65;;;23.00;85.90;;;;;;5038636;28;20037;-80
2023/07/30 09:00:33;;;;;;;48.67;46.95;;;23.30;56.40;;;;;;5029641;28;20401;-82
2023/07/30 09:03:02;;;;;;;22.88;22.08;;;23.30;3.50;;;;;;5036077;28;20029;-82
2023/07/30 09:05:30;;;;;;;25.77;24.77;;;23.30;7.20;;;;;;5033043;28;20037;-79
2023/07/30 09:07:57;;;;;;;19.58;18.88;;;23.10;10.40;;;;;;5038601;28;20025;-78
2023/07/30 09:10:25;;;;;;;20.13;19.42;;;23.10;28.90;;;;;;5039197;28;20044;-79
2023/07/30 09:12:55;;;;;;;19.95;19.25;;;23.70;15.70;;;;;;5043193;28;20469;-80
2023/07/30 09:15:32;;;;;;;21.70;20.90;;;23.90;1.00;;;;;;5035544;28;20529;-82
2023/07/30 09:18:02;;;;;;;24.10;23.20;;;23.80;1.00;;;;;;5032789;28;20121;-80
2023/07/30 09:20:36;;;;;;;30.42;29.23;;;23.90;1.00;;;;;;5038327;28;20034;-79
2023/07/30 09:23:02;;;;;;;32.22;31.13;;;23.70;1.00;;;;;;5036697;28;20029;-81
2023/07/30 09:25:28;;;;;;;25.77;24.88;;;23.40;1.00;;;;;;5047969;28;20041;-78
2023/07/30 09:27:55;;;;;;;28.30;27.17;;;23.30;8.10;;;;;;5040955;28;20032;-80
2023/07/30 09:30:23;;;;;;;32.38;31.17;;;23.30;2.20;;;;;;5034634;28;20537;-81
2023/07/30 09:32:53;;;;;;;37.08;35.70;;;23.30;1.00;;;;;;5029339;28;20049;-85
2023/07/30 09:35:20;;;;;;;;;;;23.40;1.00;;;;;;5037638;28;20446;-79
2023/07/30 09:37:46;;;;;;;39.92;38.53;;;23.40;1.00;;;;;;5036077;28;19912;-78
2023/07/30 09:40:15;;;;;;;25.70;24.80;;;23.00;1.00;;;;;;5037318;28;20045;-78
2023/07/30 09:42:43;;;;;;;47.20;45.50;;;22.80;33.80;;;;;;5029315;28;20037;-79
2023/07/30 09:45:23;;;;;;;28.45;27.38;;;22.90;1.00;;;;;;5040134;28;20055;-81
2023/07/30 09:47:51;;;;;;;33.83;32.58;;;23.00;1.00;;;;;;5035031;28;20037;-86
2023/07/30 09:50:17;;;;;;;29.00;27.90;;;22.70;1.00;;;;;;5038751;28;20068;-79
2023/07/30 09:52:44;;;;;;;24.90;24.00;;;22.20;1.00;;;;;;5061640;28;20044;-80
2023/07/30 09:55:11;;;;;;;26.85;25.85;;;22.00;1.00;;;;;;5038999;28;20379;-85
2023/07/30 09:57:38;;;;;;;28.38;27.35;;;22.00;1.00;;;;;;5052444;28;20033;-80
2023/07/30 10:00:08;;;;;;;26.88;25.88;;;22.50;1.00;;;;;;5052749;28;20104;-85
2023/07/30 10:02:40;;;;;;;32.42;31.30;;;22.30;1.00;;;;;;5024474;28;20408;-78
2023/07/30 10:05:20;;;;;;;41.55;40.10;;;22.60;1.00;;;;;;5035084;28;20037;-79
2023/07/30 10:07:59;;;;;;;55.20;53.30;;;22.80;1.00;;;;;;5035989;28;20033;-79
2023/07/30 10:10:28;;;;;;;47.22;45.55;;;22.70;1.00;;;;;;5036331;28;20447;-80
2023/07/30 10:13:00;;;;;;;27.95;26.95;;;22.40;1.00;;;;;;5036225;28;20033;-81
2023/07/30 10:15:26;;;;;;;26.08;25.15;;;22.10;1.00;;;;;;5037923;28;20467;-82
2023/07/30 10:17:52;;;;;;;29.45;28.42;;;22.50;1.00;;;;;;5036926;28;20479;-78
2023/07/30 10:20:28;;;;;;;27.48;26.48;;;22.40;1.00;;;;;;5028319;28;20033;-78
2023/07/30 10:22:57;;;;;;;28.27;27.17;;;22.40;1.00;;;;;;5035386;28;20466;-82
2023/07/30 10:25:29;;;;;;;28.33;27.33;;;22.40;1.00;;;;;;5037668;28;20038;-81
2023/07/30 10:27:56;;;;;;;26.80;25.83;;;22.30;1.00;;;;;;5037434;28;20038;-79
2023/07/30 10:30:29;;;;;;;26.77;25.80;;;22.40;1.00;;;;;;5035093;28;20041;-78
2023/07/30 10:32:55;;;;;;;28.77;27.77;;;22.80;1.00;;;;;;5037049;28;20041;-77
2023/07/30 10:35:48;;;;;;;49.95;48.25;;;23.30;1.00;;;;;;5035792;28;20042;-80
2023/07/30 10:38:34;;;;;;;44.40;42.83;;;23.40;1.00;;;;;;5030748;28;20037;-79
2023/07/30 10:41:13;;;;;;;36.85;35.55;;;23.20;1.00;;;;;;5034072;28;20042;-80
2023/07/30 10:43:46;;;;;;;32.05;30.95;;;22.90;1.00;;;;;;5037123;28;20037;-80
2023/07/30 10:46:14;;;;;;;30.65;29.55;;;22.80;1.00;;;;;;5038634;28;20551;-78
2023/07/30 10:48:42;;;;;;;29.67;28.50;;;22.80;1.00;;;;;;5033655;28;20045;-81
2023/07/30 10:51:10;;;;;;;31.73;30.55;;;22.60;1.00;;;;;;5032529;28;20045;-81
2023/07/30 10:53:36;;;;;;;41.47;39.92;;;22.40;1.00;;;;;;5051973;28;20033;-80
2023/07/30 10:56:04;;;;;;;51.38;49.55;;;22.40;1.00;;;;;;5030898;28;20037;-82
2023/07/30 10:58:32;;;;;;;31.77;30.67;;;22.70;1.00;;;;;;5032772;28;20395;-79
2023/07/30 11:00:59;;;;;;;42.50;41.00;;;22.50;1.00;;;;;;5026576;28;20049;-80
2023/07/30 11:03:28;;;;;;;39.65;38.25;;;22.30;1.00;;;;;;5034802;28;20026;-79
2023/07/30 11:05:55;;;;;;;43.88;42.30;;;22.40;1.00;;;;;;5033703;28;20030;-80
2023/07/30 11:08:39;;;;;;;44.65;43.08;;;22.40;1.00;;;;;;5037702;28;20029;-80
2023/07/30 11:11:06;;;;;;;27.90;26.90;;;22.40;1.00;;;;;;5036644;28;20044;-79
2023/07/30 11:13:46;;;;;;;39.65;38.25;;;22.20;1.00;;;;;;5035111;28;20041;-79
2023/07/30 11:16:13;;;;;;;24.45;23.45;;;22.50;1.00;;;;;;5036007;28;20045;-79
2023/07/30 11:18:41;;;;;;;34.05;32.78;;;22.30;1.00;;;;;;5049145;28;20049;-79
2023/07/30 11:21:12;;;;;;;48.13;46.42;;;22.30;1.00;;;;;;5025622;28;20037;-81
2023/07/30 11:23:41;;;;;;;22.05;21.25;;;22.40;1.00;;;;;;5035270;28;20910;-82
2023/07/30 11:26:12;;;;;;;21.08;20.27;;;22.40;1.00;;;;;;5021613;28;20041;-80
2023/07/30 11:28:40;;;;;;;21.80;20.95;;;22.10;1.00;;;;;;5015973;28;20038;-83
2023/07/30 11:31:17;;;;;;;22.27;21.38;;;21.90;1.00;;;;;;5019776;28;20040;-83
2023/07/30 11:33:45;;;;;;;20.80;20.00;;;21.80;1.00;;;;;;5031989;28;20033;-79
2023/07/30 11:36:22;;;;;;;24.92;23.92;;;21.80;1.00;;;;;;5035995;28;20033;-79
2023/07/30 11:38:49;;;;;;;24.73;23.80;;;21.90;1.00;;;;;;5034419;28;20029;-80
2023/07/30 11:41:16;;;;;;;22.75;21.85;;;22.00;1.00;;;;;;5033959;28;20044;-80
2023/07/30 11:43:43;;;;;;;20.25;19.55;;;22.10;1.00;;;;;;5031896;28;20042;-82
2023/07/30 11:46:15;;;;;;;18.48;17.73;;;22.50;1.00;;;;;;5030500;28;20493;-81
2023/07/30 11:48:44;;;;;;;22.05;21.13;;;22.80;1.00;;;;;;5031755;28;20045;-80
2023/07/30 11:51:27;;;;;;;21.45;20.65;;;22.80;99.90;;;;;;5029849;28;20043;-82
2023/07/30 11:53:58;;;;;;;23.55;22.65;;;22.40;99.90;;;;;;5035091;28;20042;-80
2023/07/30 11:56:29;;;;;;;24.80;23.90;;;22.20;99.90;;;;;;5024528;28;20054;-81
2023/07/30 11:58:58;;;;;;;29.30;28.20;;;22.30;99.90;;;;;;5035035;28;20060;-82
2023/07/30 12:01:26;;;;;;;33.97;32.78;;;22.20;99.90;;;;;;5032077;28;20041;-82
2023/07/30 12:03:57;;;;;;;34.30;33.00;;;22.20;99.90;;;;;;5040271;28;20041;-79
2023/07/30 12:06:23;;;;;;;27.88;26.77;;;22.10;99.90;;;;;;5037789;28;20048;-81
2023/07/30 12:08:51;;;;;;;31.48;30.27;;;22.40;99.90;;;;;;5038340;28;20041;-80
2023/07/30 12:11:21;;;;;;;31.70;30.52;;;22.70;99.90;;;;;;5033024;28;20045;-81
2023/07/30 12:13:50;;;;;;;39.63;38.22;;;22.60;99.90;;;;;;5032497;28;20038;-81
2023/07/30 12:16:16;;;;;;;33.53;32.17;;;22.60;99.90;;;;;;5038562;28;20021;-80
2023/07/30 12:18:42;;;;;;;26.90;25.50;;;22.00;99.90;;;;;;5036435;28;20052;-79
2023/07/30 12:21:10;;;;;;;38.15;36.75;;;21.70;1.00;;;;;;5032423;28;20041;-79
2023/07/30 12:23:38;;;;;;;26.20;25.27;;;21.80;99.90;;;;;;5039171;28;20045;-81
2023/07/30 12:26:04;;;;;;;41.50;40.00;;;21.80;1.00;;;;;;5035004;28;20400;-80
2023/07/30 12:28:32;;;;;;;43.50;41.95;;;22.10;99.90;;;;;;5038524;28;20053;-80
2023/07/30 12:30:59;;;;;;;33.17;31.95;;;22.40;99.90;;;;;;5026375;28;20028;-79
2023/07/30 12:33:25;;;;;;;30.42;28.95;;;22.20;99.90;;;;;;5032731;28;20033;-78
2023/07/30 12:35:52;;;;;;;19.85;18.88;;;22.00;99.90;;;;;;5035250;28;20033;-79